Time;durP1;ratioP1;P1;durP2;ratioP2;P2;SDS_P1;SDS_P2;PMS_P1;PMS_P2;Temp;Humidity;BMP_temperature;BMP_pressure;BME280_temperature;BME280_humidity;BME280_pressure;Samples;Min_cycle;Max_cycle;Signal;HPM_P1;HPM_P2
2021/07/02 00:01:24;;;;;;;13.88;5.72;;;14.60;99.90;;;;;;5027988;28;20045;-87
2021/07/02 00:03:49;;;;;;;10.77;5.90;;;14.70;99.90;;;;;;5028463;28;20049;-89
2021/07/02 00:06:15;;;;;;;13.02;5.63;;;14.70;99.90;;;;;;5028144;28;20036;-89
2021/07/02 00:08:40;;;;;;;12.13;5.68;;;14.70;99.90;;;;;;5027905;28;20026;-88
2021/07/02 00:11:06;;;;;;;11.73;6.53;;;14.70;99.90;;;;;;5045610;28;20076;-88
2021/07/02 00:13:32;;;;;;;9.98;5.25;;;14.70;99.90;;;;;;5028180;28;20021;-89
2021/07/02 00:15:58;;;;;;;8.75;4.90;;;14.70;99.90;;;;;;5011507;28;20097;-86
2021/07/02 00:18:23;;;;;;;12.13;4.95;;;14.70;99.90;;;;;;5045413;28;20036;-84
2021/07/02 00:20:49;;;;;;;9.63;5.35;;;14.70;99.90;;;;;;5044194;28;20043;-86
2021/07/02 00:23:15;;;;;;;12.32;5.35;;;14.70;99.90;;;;;;5011446;28;20084;-87
2021/07/02 00:25:40;;;;;;;10.93;5.20;;;14.70;99.90;;;;;;5027936;28;20029;-88
2021/07/02 00:28:07;;;;;;;10.23;5.82;;;14.70;99.90;;;;;;5027919;28;20029;-87
2021/07/02 00:30:35;;;;;;;10.38;5.60;;;14.70;99.90;;;;;;5027967;28;20104;-84
2021/07/02 00:33:01;;;;;;;11.85;5.50;;;14.70;99.90;;;;;;5027774;28;20033;-87
2021/07/02 00:35:27;;;;;;;11.82;6.32;;;14.70;99.90;;;;;;5027572;28;20068;-85
2021/07/02 00:37:53;;;;;;;13.80;6.40;;;14.70;99.90;;;;;;5027398;28;20025;-87
2021/07/02 00:40:19;;;;;;;13.75;6.75;;;14.70;99.90;;;;;;5027716;28;20030;-85
2021/07/02 00:42:45;;;;;;;10.70;5.75;;;14.70;99.90;;;;;;5027503;28;20152;-86
2021/07/02 00:45:11;;;;;;;11.07;6.20;;;14.70;99.90;;;;;;5027547;28;20022;-86
2021/07/02 00:47:37;;;;;;;12.55;6.68;;;14.60;99.90;;;;;;5011152;28;20393;-86
2021/07/02 00:50:05;;;;;;;15.43;6.60;;;14.60;99.90;;;;;;5027454;28;20053;-87
2021/07/02 00:52:31;;;;;;;7.97;5.05;;;14.70;99.90;;;;;;5047724;28;20052;-87
2021/07/02 00:54:57;;;;;;;9.80;5.57;;;14.70;99.90;;;;;;5031433;28;20025;-87
2021/07/02 00:57:25;;;;;;;16.27;6.00;;;14.70;99.90;;;;;;5031075;28;20036;-87
2021/07/02 00:59:51;;;;;;;11.52;5.70;;;14.60;99.90;;;;;;5031271;28;20021;-87
2021/07/02 01:02:18;;;;;;;12.50;5.82;;;14.60;99.90;;;;;;5031249;28;20033;-85
2021/07/02 01:04:44;;;;;;;9.23;5.75;;;14.60;99.90;;;;;;5031279;28;20057;-87
2021/07/02 01:07:11;;;;;;;9.35;5.68;;;14.60;99.90;;;;;;5047349;28;20477;-87
2021/07/02 01:09:41;;;;;;;10.73;5.32;;;14.60;99.90;;;;;;5047409;28;20036;-85
2021/07/02 01:12:11;;;;;;;11.60;5.68;;;14.50;99.90;;;;;;5047555;28;20037;-87
2021/07/02 01:14:37;;;;;;;10.82;6.20;;;14.50;99.90;;;;;;5030881;28;20092;-87
2021/07/02 01:17:04;;;;;;;12.70;6.75;;;14.50;99.90;;;;;;5048331;28;20509;-87
2021/07/02 01:19:33;;;;;;;11.77;5.68;;;14.50;99.90;;;;;;5030975;28;20036;-86
2021/07/02 01:21:59;;;;;;;7.97;4.82;;;14.50;99.90;;;;;;5030667;28;20091;-86
2021/07/02 01:24:30;;;;;;;10.85;6.05;;;14.50;99.90;;;;;;5030676;28;20505;-85
2021/07/02 01:26:57;;;;;;;13.80;6.82;;;14.50;99.90;;;;;;5014060;28;20033;-87
2021/07/02 01:29:23;;;;;;;11.10;6.10;;;14.40;99.90;;;;;;5031015;28;20101;-86
2021/07/02 01:31:51;;;;;;;12.65;6.20;;;14.40;99.90;;;;;;5014263;28;20374;-88
2021/07/02 01:34:16;;;;;;;11.30;5.93;;;14.40;99.90;;;;;;5030696;28;20025;-87
2021/07/02 01:36:43;;;;;;;9.63;5.35;;;14.50;99.90;;;;;;5030312;28;20445;-84
2021/07/02 01:39:12;;;;;;;11.32;5.55;;;14.50;99.90;;;;;;5030269;28;20186;-87
2021/07/02 01:41:38;;;;;;;11.13;6.50;;;14.40;99.90;;;;;;5014086;28;20044;-85
2021/07/02 01:44:05;;;;;;;11.38;6.63;;;14.40;99.90;;;;;;5030239;28;20022;-85
2021/07/02 01:46:30;;;;;;;10.73;5.93;;;14.50;99.90;;;;;;5013563;28;20025;-87
2021/07/02 01:48:56;;;;;;;12.75;6.32;;;14.40;99.90;;;;;;5026748;28;20081;-85
2021/07/02 01:51:26;;;;;;;15.38;7.10;;;14.40;99.90;;;;;;5046517;28;20025;-85
2021/07/02 01:53:52;;;;;;;16.00;7.90;;;14.40;99.90;;;;;;5030069;28;20109;-88
2021/07/02 01:56:19;;;;;;;15.30;7.13;;;14.40;99.90;;;;;;5029997;28;20116;-86
2021/07/02 01:58:48;;;;;;;11.65;6.38;;;14.40;99.90;;;;;;5013951;28;20030;-88
2021/07/02 02:01:24;;;;;;;12.50;6.53;;;14.40;99.90;;;;;;5030038;28;20091;-87
2021/07/02 02:03:53;;;;;;;10.57;6.18;;;14.40;99.90;;;;;;5013463;28;20025;-86
2021/07/02 02:06:19;;;;;;;12.67;4.87;;;14.40;99.90;;;;;;5013727;28;20528;-88
2021/07/02 02:08:47;;;;;;;11.80;5.95;;;14.40;99.90;;;;;;5013765;28;20287;-88
2021/07/02 02:11:13;;;;;;;9.63;5.72;;;14.40;99.90;;;;;;5013576;28;20033;-88
2021/07/02 02:13:45;;;;;;;9.05;5.63;;;14.40;99.90;;;;;;5029889;28;20036;-88
2021/07/02 02:16:12;;;;;;;11.05;6.13;;;14.40;99.90;;;;;;5013540;28;20033;-87
2021/07/02 02:18:41;;;;;;;10.15;6.18;;;14.40;99.90;;;;;;5029624;28;20036;-87
2021/07/02 02:21:06;;;;;;;9.45;5.15;;;14.40;99.90;;;;;;5013409;28;20034;-87
2021/07/02 02:23:33;;;;;;;11.57;6.35;;;14.40;99.90;;;;;;5013649;28;20089;-88
2021/07/02 02:26:01;;;;;;;11.77;5.65;;;14.40;99.90;;;;;;5029615;28;20433;-87
2021/07/02 02:28:28;;;;;;;12.05;5.43;;;14.30;99.90;;;;;;5029580;28;20033;-88
2021/07/02 02:30:54;;;;;;;12.57;6.15;;;14.40;99.90;;;;;;5029510;28;20029;-89
2021/07/02 02:33:20;;;;;;;11.05;5.60;;;14.40;99.90;;;;;;5029333;28;20051;-89
2021/07/02 02:35:46;;;;;;;10.25;6.13;;;14.30;99.90;;;;;;5029506;28;20120;-88
2021/07/02 02:38:12;;;;;;;13.20;6.47;;;14.30;99.90;;;;;;5029269;28;20029;-89
2021/07/02 02:40:38;;;;;;;13.35;6.50;;;14.40;99.90;;;;;;5029454;28;20030;-88
2021/07/02 02:43:04;;;;;;;10.00;5.72;;;14.30;99.90;;;;;;5029197;28;20552;-86
2021/07/02 02:45:31;;;;;;;9.75;6.05;;;14.30;99.90;;;;;;5029486;28;20055;-89
2021/07/02 02:48:02;;;;;;;10.70;6.80;;;14.30;99.90;;;;;;5054582;23;20143;-88
2021/07/02 02:50:28;;;;;;;12.13;6.03;;;14.30;99.90;;;;;;5069383;28;20025;-88
2021/07/02 02:52:54;;;;;;;11.20;5.50;;;14.30;99.90;;;;;;5052529;28;20116;-89
2021/07/02 02:55:21;;;;;;;10.30;5.47;;;14.30;99.90;;;;;;5065741;28;20047;-88
2021/07/02 02:57:47;;;;;;;8.60;5.00;;;14.30;99.90;;;;;;5032289;28;20096;-89
2021/07/02 03:00:14;;;;;;;11.68;6.20;;;14.30;99.90;;;;;;5065801;28;20171;-89
2021/07/02 03:02:41;;;;;;;10.38;5.65;;;14.30;99.90;;;;;;5032801;28;20029;-88
2021/07/02 03:05:07;;;;;;;10.05;5.85;;;14.30;99.90;;;;;;5049117;28;20065;-89
2021/07/02 03:07:34;;;;;;;9.48;5.60;;;14.30;99.90;;;;;;5065360;28;20060;-89
2021/07/02 03:10:00;;;;;;;12.85;5.65;;;14.30;99.90;;;;;;5065355;28;20047;-89
2021/07/02 03:12:27;;;;;;;14.18;6.78;;;14.30;99.90;;;;;;5032235;28;20025;-88
2021/07/02 03:14:54;;;;;;;13.07;6.45;;;14.30;99.90;;;;;;5048081;28;20025;-88
2021/07/02 03:17:20;;;;;;;14.52;6.88;;;14.30;99.90;;;;;;5065070;28;20037;-88
2021/07/02 03:19:47;;;;;;;14.50;6.90;;;14.30;99.90;;;;;;5032384;28;20025;-88
2021/07/02 03:22:14;;;;;;;10.98;6.22;;;14.30;99.90;;;;;;5081553;28;20061;-89
2021/07/02 03:24:41;;;;;;;11.05;6.47;;;14.20;99.90;;;;;;5048491;28;20029;-89
2021/07/02 03:27:08;;;;;;;11.10;6.72;;;14.20;99.90;;;;;;5031974;28;20029;-88
2021/07/02 03:29:35;;;;;;;10.50;6.38;;;14.20;99.90;;;;;;5048665;28;20028;-89
2021/07/02 03:32:01;;;;;;;12.85;6.90;;;14.20;99.90;;;;;;5060624;28;20032;-88
2021/07/02 03:34:27;;;;;;;14.55;6.93;;;14.10;99.90;;;;;;5068496;28;20028;-89
2021/07/02 03:36:54;;;;;;;15.15;7.00;;;14.10;99.90;;;;;;5068134;28;20025;-88
2021/07/02 03:39:20;;;;;;;15.77;6.90;;;14.10;99.90;;;;;;5086217;28;20044;-88
2021/07/02 03:41:46;;;;;;;9.77;6.35;;;14.00;99.90;;;;;;5051496;28;20043;-89
2021/07/02 03:44:13;;;;;;;13.77;6.90;;;14.10;99.90;;;;;;5051712;28;20047;-90
2021/07/02 03:46:39;;;;;;;16.20;7.40;;;14.00;99.90;;;;;;5068012;28;20441;-90
2021/07/02 03:49:05;;;;;;;14.57;6.53;;;14.00;99.90;;;;;;5051216;28;20048;-86
2021/07/02 03:51:31;;;;;;;13.30;7.50;;;14.00;99.90;;;;;;5068251;28;20032;-87
2021/07/02 03:53:56;;;;;;;13.25;6.78;;;14.00;99.90;;;;;;5067964;28;20044;-85
2021/07/02 03:56:22;;;;;;;14.55;7.43;;;14.00;99.90;;;;;;5047263;28;20025;-87
2021/07/02 03:58:48;;;;;;;14.68;7.32;;;14.00;99.90;;;;;;5030674;28;20029;-87
2021/07/02 04:01:13;;;;;;;13.70;7.85;;;14.00;99.90;;;;;;5030786;28;20036;-89
2021/07/02 04:03:39;;;;;;;12.43;7.25;;;14.00;99.90;;;;;;5030863;28;20291;-85
2021/07/02 04:06:04;;;;;;;16.65;8.32;;;13.90;99.90;;;;;;5065115;28;20036;-87
2021/07/02 04:08:30;;;;;;;13.48;7.82;;;13.80;99.90;;;;;;5063746;28;20029;-86
2021/07/02 04:10:56;;;;;;;16.65;7.72;;;13.80;99.90;;;;;;5030728;28;20052;-86
2021/07/02 04:13:22;;;;;;;13.73;8.43;;;13.80;99.90;;;;;;5047100;28;20029;-88
2021/07/02 04:15:49;;;;;;;14.95;8.68;;;13.80;99.90;;;;;;5063711;28;20025;-87
2021/07/02 04:18:14;;;;;;;15.15;9.07;;;13.80;99.90;;;;;;5030459;28;20095;-85
2021/07/02 04:20:40;;;;;;;14.43;7.95;;;13.80;99.90;;;;;;5047222;28;20021;-87
2021/07/02 04:23:06;;;;;;;15.25;9.02;;;13.90;99.90;;;;;;5047239;28;20045;-84
2021/07/02 04:25:32;;;;;;;15.13;8.63;;;13.90;99.90;;;;;;5048061;28;20084;-88
2021/07/02 04:27:58;;;;;;;19.10;9.05;;;13.90;99.90;;;;;;5068628;28;20036;-87
2021/07/02 04:30:23;;;;;;;16.08;10.07;;;13.80;99.90;;;;;;5071757;28;20111;-89
2021/07/02 04:32:49;;;;;;;21.17;10.55;;;13.80;99.90;;;;;;5080006;28;20032;-90
2021/07/02 04:35:14;;;;;;;16.23;9.07;;;13.80;99.90;;;;;;5055715;28;20035;-90
2021/07/02 04:37:41;;;;;;;14.55;9.13;;;13.80;99.90;;;;;;5070918;28;20385;-88
2021/07/02 04:40:08;;;;;;;15.35;9.07;;;13.80;99.90;;;;;;5071005;28;20040;-88
2021/07/02 04:42:34;;;;;;;14.95;8.63;;;13.80;99.90;;;;;;5070919;28;20041;-87
2021/07/02 04:45:00;;;;;;;17.88;10.60;;;13.90;99.90;;;;;;5067528;28;20032;-86
2021/07/02 04:47:26;;;;;;;17.23;10.27;;;13.90;99.90;;;;;;5070002;28;20072;-88
2021/07/02 04:49:52;;;;;;;17.65;10.02;;;13.90;99.90;;;;;;5053706;28;20526;-87
2021/07/02 04:52:18;;;;;;;21.23;11.20;;;14.00;99.90;;;;;;5070642;28;20024;-87
2021/07/02 04:54:44;;;;;;;16.20;9.45;;;14.00;99.90;;;;;;5070534;28;20053;-88
2021/07/02 04:57:09;;;;;;;18.75;10.52;;;14.10;99.90;;;;;;5053596;28;20082;-88
2021/07/02 04:59:38;;;;;;;17.40;9.57;;;14.20;99.90;;;;;;5069987;28;20036;-88
2021/07/02 05:02:11;;;;;;;18.05;10.68;;;14.30;99.90;;;;;;5054622;28;20047;-88
2021/07/02 05:04:37;;;;;;;17.75;10.52;;;14.30;99.90;;;;;;5088174;28;20021;-88
2021/07/02 05:07:03;;;;;;;18.73;9.90;;;14.40;99.90;;;;;;5053423;28;20032;-88
2021/07/02 05:09:29;;;;;;;19.48;11.02;;;14.60;99.90;;;;;;5070098;28;20464;-87
2021/07/02 05:11:54;;;;;;;17.73;10.73;;;14.80;99.90;;;;;;5088298;28;20055;-88
2021/07/02 05:14:20;;;;;;;21.10;10.57;;;15.00;99.90;;;;;;5053025;28;20046;-86
2021/07/02 05:16:46;;;;;;;16.50;10.23;;;15.10;99.90;;;;;;5087710;28;20056;-87
2021/07/02 05:19:11;;;;;;;18.55;10.57;;;15.10;99.90;;;;;;5069086;28;20035;-88
2021/07/02 05:21:40;;;;;;;18.05;9.18;;;14.90;99.90;;;;;;5053066;28;20040;-88
2021/07/02 05:24:05;;;;;;;18.42;10.65;;;14.90;99.90;;;;;;5053352;28;20311;-87
2021/07/02 05:26:31;;;;;;;19.48;10.70;;;14.70;99.90;;;;;;5069717;28;20029;-88
2021/07/02 05:28:57;;;;;;;20.90;9.52;;;14.70;99.90;;;;;;5052707;28;20431;-88
2021/07/02 05:31:22;;;;;;;18.02;9.07;;;14.60;99.90;;;;;;5069661;28;20036;-88
2021/07/02 05:33:48;;;;;;;15.82;8.93;;;14.60;99.90;;;;;;5053052;28;20028;-88
2021/07/02 05:36:14;;;;;;;18.40;9.88;;;14.60;99.90;;;;;;5069878;28;20080;-87
2021/07/02 05:38:39;;;;;;;17.38;10.00;;;14.70;99.90;;;;;;5068733;28;20144;-89
2021/07/02 05:41:05;;;;;;;17.25;10.25;;;14.70;99.90;;;;;;5069504;28;20085;-88
2021/07/02 05:43:31;;;;;;;19.02;10.38;;;14.90;99.90;;;;;;5068987;28;20043;-87
2021/07/02 05:45:56;;;;;;;17.08;9.35;;;15.20;99.90;;;;;;5069283;28;20040;-88
2021/07/02 05:48:24;;;;;;;18.17;11.13;;;15.40;99.90;;;;;;5054011;23;20061;-87
2021/07/02 05:50:49;;;;;;;22.73;11.75;;;15.50;99.90;;;;;;5029974;28;20056;-87
2021/07/02 05:53:17;;;;;;;19.20;9.95;;;15.60;99.90;;;;;;5047690;28;20033;-88
2021/07/02 05:55:42;;;;;;;17.42;9.27;;;15.80;99.90;;;;;;5029654;28;20029;-88
2021/07/02 05:58:08;;;;;;;15.32;10.02;;;15.90;99.90;;;;;;5029829;28;20508;-87
2021/07/02 06:00:34;;;;;;;16.75;10.93;;;16.00;99.90;;;;;;5029865;28;20033;-88
2021/07/02 06:02:59;;;;;;;18.77;10.65;;;16.10;99.90;;;;;;5029613;28;20041;-88
2021/07/02 06:05:25;;;;;;;17.40;10.75;;;16.20;99.90;;;;;;5029708;28;20116;-89
2021/07/02 06:07:53;;;;;;;12.80;7.97;;;16.40;99.90;;;;;;5012943;28;20038;-88
2021/07/02 06:10:24;;;;;;;15.38;9.20;;;16.40;99.90;;;;;;5029489;28;20029;-85
2021/07/02 06:12:51;;;;;;;13.25;8.52;;;16.50;99.90;;;;;;5029630;28;20057;-88
2021/07/02 06:15:18;;;;;;;15.95;8.65;;;16.70;99.90;;;;;;5013061;28;20037;-88
2021/07/02 06:17:45;;;;;;;15.13;8.82;;;16.80;99.90;;;;;;5029144;28;20041;-89
2021/07/02 06:20:12;;;;;;;15.55;8.48;;;16.90;99.90;;;;;;5029265;28;20036;-86
2021/07/02 06:22:38;;;;;;;15.30;8.70;;;17.10;99.90;;;;;;5029047;28;20041;-85
2021/07/02 06:25:06;;;;;;;15.38;8.77;;;17.30;99.90;;;;;;5029009;28;20036;-86
2021/07/02 06:27:32;;;;;;;16.35;8.95;;;17.40;99.90;;;;;;5029148;28;20047;-84
2021/07/02 06:29:57;;;;;;;14.35;8.68;;;17.30;99.90;;;;;;5029061;28;20061;-90
2021/07/02 06:32:23;;;;;;;15.95;9.73;;;17.40;99.90;;;;;;5028819;28;20033;-88
2021/07/02 06:34:49;;;;;;;14.48;8.77;;;17.30;99.90;;;;;;5045524;28;20029;-87
2021/07/02 06:37:14;;;;;;;12.98;8.35;;;17.60;99.90;;;;;;5028735;28;20037;-87
2021/07/02 06:39:40;;;;;;;11.30;7.03;;;17.80;99.90;;;;;;5045551;28;20116;-88
2021/07/02 06:42:06;;;;;;;11.30;6.93;;;17.90;99.90;;;;;;5046487;28;20029;-89
2021/07/02 06:44:31;;;;;;;11.68;6.70;;;18.10;99.90;;;;;;5045321;28;20406;-88
2021/07/02 06:46:57;;;;;;;12.25;7.85;;;18.10;99.90;;;;;;5044649;28;20093;-86
2021/07/02 06:49:23;;;;;;;13.50;7.63;;;17.90;99.90;;;;;;5044962;28;20060;-84
2021/07/02 06:51:49;;;;;;;12.80;7.80;;;18.00;99.90;;;;;;5045049;28;20098;-85
2021/07/02 06:54:14;;;;;;;15.73;9.07;;;18.30;99.90;;;;;;5045117;28;20045;-87
2021/07/02 06:57:00;;;;;;;11.32;7.00;;;17.90;99.90;;;;;;5044665;28;20030;-86
2021/07/02 06:59:26;;;;;;;11.27;6.13;;;17.60;99.90;;;;;;5045053;28;20025;-86
2021/07/02 07:01:52;;;;;;;14.70;8.63;;;17.50;99.90;;;;;;5045705;28;20037;-85
2021/07/02 07:04:17;;;;;;;11.68;7.82;;;16.90;99.90;;;;;;5044894;28;20036;-86
2021/07/02 07:06:43;;;;;;;13.93;6.65;;;17.00;99.90;;;;;;5021401;28;20105;-89
2021/07/02 07:09:09;;;;;;;12.40;7.70;;;17.70;99.90;;;;;;5011603;28;20037;-85
2021/07/02 07:11:34;;;;;;;13.98;5.75;;;18.10;99.90;;;;;;5027998;28;20033;-85
2021/07/02 07:14:00;;;;;;;15.75;9.43;;;18.30;99.90;;;;;;5011882;28;20032;-85
2021/07/02 07:16:25;;;;;;;15.23;7.32;;;17.90;99.90;;;;;;5027840;28;20044;-83
2021/07/02 07:18:51;;;;;;;11.25;5.38;;;18.50;99.90;;;;;;5027975;28;20503;-84
2021/07/02 07:21:17;;;;;;;12.95;8.25;;;18.90;99.90;;;;;;5026847;28;20021;-83
2021/07/02 07:23:43;;;;;;;12.70;6.80;;;18.60;99.90;;;;;;5044607;28;20116;-82
2021/07/02 07:26:08;;;;;;;12.35;7.65;;;18.90;99.90;;;;;;5044316;28;20040;-86
2021/07/02 07:28:35;;;;;;;12.45;7.47;;;18.40;99.90;;;;;;5044581;28;20030;-85
2021/07/02 07:31:00;;;;;;;14.38;8.05;;;18.00;99.90;;;;;;5044310;28;20032;-84
2021/07/02 07:33:26;;;;;;;12.38;6.80;;;17.70;99.90;;;;;;5027724;28;20037;-85
2021/07/02 07:35:52;;;;;;;8.73;5.40;;;18.20;99.90;;;;;;5044323;28;20034;-85
2021/07/02 07:38:19;;;;;;;10.52;4.95;;;19.00;99.90;;;;;;5044215;28;20052;-84
2021/07/02 07:40:44;;;;;;;8.55;4.47;;;19.30;99.90;;;;;;5044288;28;20057;-84
2021/07/02 07:43:10;;;;;;;9.90;5.05;;;19.10;99.90;;;;;;5044094;28;20037;-82
2021/07/02 07:45:36;;;;;;;11.40;6.90;;;19.40;99.90;;;;;;5043997;28;20034;-84
2021/07/02 07:48:01;;;;;;;11.23;5.97;;;18.70;99.90;;;;;;5043586;28;20080;-84
2021/07/02 07:50:30;;;;;;;8.27;4.00;;;18.30;99.90;;;;;;5044254;28;20061;-85
2021/07/02 07:52:59;;;;;;;9.40;3.47;;;19.20;99.90;;;;;;5027511;28;20083;-85
2021/07/02 07:55:29;;;;;;;10.07;5.10;;;18.90;99.90;;;;;;5043719;28;20037;-87
2021/07/02 07:57:56;;;;;;;12.40;6.00;;;18.20;99.90;;;;;;5027032;28;20041;-82
2021/07/02 08:00:23;;;;;;;5.28;3.42;;;18.10;99.90;;;;;;5029434;28;20040;-85
2021/07/02 08:02:49;;;;;;;7.57;3.28;;;18.40;99.90;;;;;;5034001;28;20132;-83
2021/07/02 08:05:15;;;;;;;8.20;3.47;;;18.60;99.90;;;;;;5034225;28;20159;-84
2021/07/02 08:07:43;;;;;;;7.63;3.65;;;19.20;99.90;;;;;;5017567;28;20063;-85
2021/07/02 08:10:11;;;;;;;7.97;4.65;;;19.20;99.90;;;;;;5011528;28;20046;-83
2021/07/02 08:12:38;;;;;;;6.10;3.80;;;18.40;99.90;;;;;;5014091;28;20072;-84
2021/07/02 08:15:05;;;;;;;7.07;3.60;;;18.60;99.90;;;;;;5014324;28;20029;-83
2021/07/02 08:17:31;;;;;;;6.82;3.42;;;19.10;99.90;;;;;;5013750;28;20037;-84
2021/07/02 08:19:57;;;;;;;3.80;2.08;;;20.00;99.90;;;;;;4997794;28;20034;-86
2021/07/02 08:22:27;;;;;;;6.93;4.22;;;20.20;99.90;;;;;;5014201;28;20041;-83
2021/07/02 08:24:53;;;;;;;7.72;3.55;;;19.10;99.90;;;;;;5014179;28;20125;-83
2021/07/02 08:27:21;;;;;;;4.35;2.80;;;18.50;99.90;;;;;;4997757;28;20044;-84
2021/07/02 08:29:47;;;;;;;3.13;1.60;;;18.70;99.90;;;;;;5013858;28;20037;-84
2021/07/02 08:32:13;;;;;;;5.13;2.60;;;19.60;99.90;;;;;;5011192;28;20039;-84
2021/07/02 08:34:38;;;;;;;7.00;5.43;;;19.90;99.90;;;;;;5033500;28;20031;-84
2021/07/02 08:37:04;;;;;;;11.32;5.38;;;19.10;99.90;;;;;;5017444;28;20497;-83
2021/07/02 08:39:30;;;;;;;5.68;2.80;;;19.60;99.90;;;;;;5033626;28;20033;-84
2021/07/02 08:41:56;;;;;;;3.55;1.88;;;20.90;99.90;;;;;;5033517;28;20056;-83
2021/07/02 08:44:22;;;;;;;2.95;1.75;;;21.50;99.90;;;;;;5051354;28;20033;-83
2021/07/02 08:49:43;;;;;;;4.63;2.42;;;21.80;99.90;;;;;;5029056;28;20072;-83
2021/07/02 08:52:09;;;;;;;7.03;3.92;;;22.00;99.90;;;;;;5029712;28;20061;-83
2021/07/02 08:54:34;;;;;;;4.28;2.95;;;21.60;99.90;;;;;;5030328;28;20026;-82
2021/07/02 08:57:00;;;;;;;8.55;4.78;;;22.10;99.90;;;;;;5013608;28;20036;-83
2021/07/02 08:59:27;;;;;;;9.88;5.10;;;22.00;99.90;;;;;;5031287;28;20124;-83
2021/07/02 09:01:54;;;;;;;7.55;4.43;;;21.40;99.90;;;;;;5013625;28;20049;-84
2021/07/02 09:04:26;;;;;;;7.28;4.22;;;21.40;99.90;;;;;;5013486;28;20025;-84
2021/07/02 09:07:03;;;;;;;9.40;4.63;;;20.90;99.90;;;;;;5013655;28;20083;-83
2021/07/02 09:09:58;;;;;;;11.43;5.82;;;20.60;99.90;;;;;;4977740;28;20056;-83
2021/07/02 09:12:35;;;;;;;10.32;5.72;;;19.80;99.90;;;;;;5010719;28;20097;-83
2021/07/02 09:15:07;;;;;;;9.15;5.75;;;19.60;99.90;;;;;;4994624;28;20041;-84
2021/07/02 09:17:38;;;;;;;7.65;4.90;;;20.20;99.90;;;;;;5010148;28;20030;-84
2021/07/02 09:20:05;;;;;;;6.22;3.47;;;20.30;99.90;;;;;;5027782;28;20041;-82
2021/07/02 09:22:46;;;;;;;6.95;4.22;;;20.90;99.90;;;;;;5009396;28;20060;-84
2021/07/02 09:25:23;;;;;;;8.27;6.32;;;20.70;99.90;;;;;;5027989;28;20037;-83
2021/07/02 09:27:50;;;;;;;8.13;5.03;;;20.90;99.90;;;;;;4993868;28;20034;-83
2021/07/02 09:30:22;;;;;;;8.70;4.93;;;21.80;99.90;;;;;;5026651;28;20034;-84
2021/07/02 09:33:14;;;;;;;7.00;4.63;;;22.70;99.90;;;;;;4993810;28;20064;-83
2021/07/02 09:35:53;;;;;;;6.85;3.88;;;22.80;99.90;;;;;;5010223;28;20030;-84
2021/07/02 09:38:34;;;;;;;16.85;8.23;;;21.80;99.90;;;;;;5026294;28;20081;-83
2021/07/02 09:41:02;;;;;;;14.35;7.20;;;19.90;99.90;;;;;;5026363;28;20038;-84
2021/07/02 09:43:32;;;;;;;11.48;5.88;;;19.30;99.90;;;;;;5027582;28;20072;-83
2021/07/02 09:46:17;;;;;;;;;;;19.30;99.90;;;;;;5026426;28;20036;-85
2021/07/02 09:48:45;;;;;;;10.57;5.88;;;19.10;99.90;;;;;;4983505;28;19929;-84
2021/07/02 09:51:11;;;;;;;17.70;9.45;;;19.30;99.90;;;;;;4969585;28;20530;-84
2021/07/02 09:53:37;;;;;;;12.32;8.48;;;19.30;99.90;;;;;;4969618;28;20080;-84
2021/07/02 09:56:09;;;;;;;19.13;12.07;;;19.90;99.90;;;;;;4969472;28;20537;-85
2021/07/02 09:58:37;;;;;;;18.52;10.75;;;19.90;99.90;;;;;;4969749;28;20038;-85
2021/07/02 10:01:04;;;;;;;17.60;10.48;;;19.70;99.90;;;;;;4953452;28;20452;-84
2021/07/02 10:03:38;;;;;;;17.92;10.55;;;19.80;99.90;;;;;;4985616;28;20226;-85
2021/07/02 10:06:06;;;;;;;12.52;7.15;;;20.70;99.90;;;;;;4946563;28;20034;-84
2021/07/02 10:08:33;;;;;;;12.13;5.30;;;21.70;99.90;;;;;;4952017;28;20046;-83
2021/07/02 10:11:00;;;;;;;8.20;5.47;;;22.70;99.90;;;;;;4985220;28;20466;-83
2021/07/02 10:13:32;;;;;;;9.68;5.60;;;22.90;99.90;;;;;;4985156;28;20054;-83
2021/07/02 10:15:59;;;;;;;7.63;4.80;;;23.10;99.90;;;;;;4968973;28;20075;-84
2021/07/02 10:18:28;;;;;;;6.90;4.32;;;22.80;99.90;;;;;;4952940;28;20058;-83
2021/07/02 10:20:59;;;;;;;6.13;4.38;;;22.50;99.90;;;;;;4953071;28;20486;-85
2021/07/02 10:23:26;;;;;;;7.72;5.28;;;21.70;99.90;;;;;;4985617;28;20455;-83
2021/07/02 10:25:53;;;;;;;9.43;6.35;;;21.10;99.90;;;;;;4990148;28;20049;-84
2021/07/02 10:28:21;;;;;;;10.30;7.03;;;20.50;99.90;;;;;;4992719;28;20026;-84
2021/07/02 10:30:48;;;;;;;9.65;6.72;;;20.10;99.90;;;;;;4992601;28;20033;-84
2021/07/02 10:33:14;;;;;;;12.30;7.85;;;20.10;99.90;;;;;;5008796;28;20087;-83
2021/07/02 10:35:44;;;;;;;11.50;7.97;;;20.00;99.90;;;;;;4992385;28;20060;-84
2021/07/02 10:38:11;;;;;;;9.63;7.28;;;19.40;99.90;;;;;;5008554;28;20030;-83
2021/07/02 10:40:40;;;;;;;10.48;5.32;;;19.60;99.90;;;;;;5008723;28;20046;-84
2021/07/02 10:43:11;;;;;;;9.77;6.40;;;20.10;99.90;;;;;;4992451;28;20072;-84
2021/07/02 10:45:39;;;;;;;13.27;9.02;;;19.90;99.90;;;;;;5008372;28;20128;-84
2021/07/02 10:48:05;;;;;;;12.68;8.63;;;19.50;99.90;;;;;;5037287;22;20053;-83
2021/07/02 10:50:40;;;;;;;10.73;6.88;;;19.90;99.90;;;;;;5066182;28;20040;-84
2021/07/02 10:53:35;;;;;;;11.55;8.60;;;20.10;99.90;;;;;;5048069;28;20033;-84
2021/07/02 10:56:27;;;;;;;13.55;8.90;;;19.90;99.90;;;;;;5035313;28;20040;-83
2021/07/02 10:58:53;;;;;;;18.52;12.38;;;19.80;99.90;;;;;;5048253;28;20067;-83
2021/07/02 11:01:19;;;;;;;15.90;11.30;;;19.30;99.90;;;;;;5031769;28;20033;-84
2021/07/02 11:03:45;;;;;;;14.68;10.32;;;19.20;99.90;;;;;;5048258;28;20064;-82
2021/07/02 11:06:39;;;;;;;13.30;8.85;;;19.40;99.90;;;;;;5047766;28;20061;-84
2021/07/02 11:09:06;;;;;;;13.68;10.52;;;19.90;99.90;;;;;;5047991;28;20040;-83
2021/07/02 11:12:08;;;;;;;16.40;11.70;;;19.80;99.90;;;;;;5047930;28;20048;-83
2021/07/02 11:14:54;;;;;;;11.48;8.27;;;19.90;99.90;;;;;;5065908;28;20025;-83
2021/07/02 11:17:23;;;;;;;14.55;9.57;;;20.10;99.90;;;;;;5030882;28;20033;-84
2021/07/02 11:20:10;;;;;;;10.52;7.80;;;19.90;99.90;;;;;;5047775;28;20025;-84
2021/07/02 11:23:01;;;;;;;8.48;6.07;;;19.90;99.90;;;;;;5030386;28;20060;-83
2021/07/02 11:26:20;;;;;;;14.07;8.60;;;20.30;99.90;;;;;;5047732;28;20033;-82
2021/07/02 11:28:47;;;;;;;10.27;6.93;;;20.60;99.90;;;;;;5034549;28;20123;-84
2021/07/02 11:31:33;;;;;;;7.40;5.90;;;21.40;99.90;;;;;;5071483;28;20088;-84
2021/07/02 11:34:09;;;;;;;10.15;6.85;;;21.20;99.90;;;;;;5050744;28;20067;-84
2021/07/02 11:36:34;;;;;;;9.80;5.93;;;21.20;99.90;;;;;;5049749;28;20061;-83
2021/07/02 11:39:00;;;;;;;13.68;9.85;;;21.40;99.90;;;;;;5050831;28;20064;-83
2021/07/02 11:41:32;;;;;;;12.80;7.97;;;20.00;99.90;;;;;;5050620;28;20060;-84
2021/07/02 11:44:01;;;;;;;11.45;7.05;;;20.00;99.90;;;;;;5047448;28;20062;-83
2021/07/02 11:46:27;;;;;;;9.75;6.63;;;20.50;99.90;;;;;;5030010;28;20116;-83
2021/07/02 11:48:54;;;;;;;9.93;5.30;;;20.70;99.90;;;;;;5030190;28;20063;-83
2021/07/02 11:51:22;;;;;;;14.25;8.02;;;20.80;99.90;;;;;;5029558;28;20265;-84
2021/07/02 11:53:51;;;;;;;7.25;5.63;;;20.20;99.90;;;;;;5046685;28;20062;-84
2021/07/02 11:56:21;;;;;;;8.95;6.82;;;21.00;99.90;;;;;;5046808;28;20029;-85
2021/07/02 11:58:50;;;;;;;12.52;7.35;;;20.40;99.90;;;;;;5064743;28;20136;-84
2021/07/02 12:01:18;;;;;;;14.57;10.27;;;20.20;99.90;;;;;;5046823;28;20031;-84
2021/07/02 12:03:59;;;;;;;14.90;9.50;;;19.70;99.90;;;;;;5030597;28;20048;-84
2021/07/02 12:06:30;;;;;;;10.82;7.10;;;19.50;99.90;;;;;;5046507;28;20029;-86
2021/07/02 12:09:05;;;;;;;12.63;8.15;;;20.00;99.90;;;;;;5046639;28;20048;-84
2021/07/02 12:11:37;;;;;;;14.45;9.68;;;19.80;99.90;;;;;;5046757;28;20036;-85
2021/07/02 12:14:05;;;;;;;13.85;8.68;;;19.40;99.90;;;;;;5046781;28;20032;-83
2021/07/02 12:16:42;;;;;;;17.75;11.25;;;19.70;99.90;;;;;;5046645;28;20040;-85
2021/07/02 12:19:16;;;;;;;14.75;11.82;;;19.50;99.90;;;;;;5046970;28;20047;-84
2021/07/02 12:22:15;;;;;;;12.43;7.88;;;19.20;99.90;;;;;;5030966;28;20101;-88
2021/07/02 12:24:43;;;;;;;12.30;8.32;;;19.10;99.90;;;;;;5046628;28;20124;-84
2021/07/02 12:27:14;;;;;;;11.55;7.57;;;19.10;99.90;;;;;;5046223;28;20029;-84
2021/07/02 12:29:41;;;;;;;11.05;6.72;;;19.60;99.90;;;;;;5046640;28;20043;-84
2021/07/02 12:32:13;;;;;;;12.52;7.15;;;20.00;99.90;;;;;;5046776;28;20029;-83
2021/07/02 12:34:44;;;;;;;17.27;9.55;;;20.00;99.90;;;;;;5046665;28;20059;-84
2021/07/02 12:37:16;;;;;;;11.73;7.90;;;19.80;99.90;;;;;;5045646;28;20461;-83
2021/07/02 12:39:46;;;;;;;12.23;8.32;;;19.60;99.90;;;;;;5029931;28;20101;-83
2021/07/02 12:42:15;;;;;;;13.35;7.68;;;19.60;99.90;;;;;;5030304;28;20045;-84
2021/07/02 12:44:53;;;;;;;13.40;8.48;;;19.60;99.90;;;;;;5030421;28;20029;-84
2021/07/02 12:47:20;;;;;;;15.52;9.73;;;19.10;99.90;;;;;;5048586;28;20060;-84